createdAt,value
2022-11-06T00:00:45.890Z,1.80
2022-11-06T00:03:13.104Z,1.65
2022-11-06T00:05:59.793Z,1.98
2022-11-06T00:08:36.960Z,1.70
2022-11-06T00:11:14.971Z,1.70
2022-11-06T00:13:42.731Z,2.00
2022-11-06T00:16:10.868Z,1.95
2022-11-06T00:18:38.596Z,1.90
2022-11-06T00:21:13.389Z,1.63
2022-11-06T00:23:40.913Z,1.55
2022-11-06T00:26:12.310Z,1.58
2022-11-06T00:28:39.715Z,1.73
2022-11-06T00:31:08.293Z,1.73
2022-11-06T00:33:36.037Z,1.40
2022-11-06T00:36:04.088Z,1.45
2022-11-06T00:38:31.718Z,1.60
2022-11-06T00:41:02.458Z,1.70
2022-11-06T00:43:29.583Z,1.60
2022-11-06T00:46:01.547Z,1.33
2022-11-06T00:48:28.633Z,1.67
2022-11-06T00:50:55.851Z,1.75
2022-11-06T00:53:22.945Z,1.45
2022-11-06T00:55:50.063Z,1.90
2022-11-06T00:58:19.261Z,1.40
2022-11-06T01:00:46.374Z,1.60
2022-11-06T01:03:13.454Z,1.40
2022-11-06T01:05:42.090Z,1.45
2022-11-06T01:08:09.311Z,1.48
2022-11-06T01:10:37.678Z,1.60
2022-11-06T01:13:04.769Z,1.50
2022-11-06T01:15:32.104Z,1.55
2022-11-06T01:17:59.314Z,1.42
2022-11-06T01:20:26.470Z,1.48
2022-11-06T01:22:53.591Z,1.20
2022-11-06T01:25:20.670Z,1.73
2022-11-06T01:27:47.754Z,1.30
2022-11-06T01:30:14.836Z,1.30
2022-11-06T01:32:41.907Z,1.40
2022-11-06T01:35:09.062Z,1.70
2022-11-06T01:37:36.329Z,1.70
2022-11-06T01:40:03.499Z,1.80
2022-11-06T01:42:30.630Z,1.60
2022-11-06T01:45:16.398Z,1.60
2022-11-06T01:47:43.798Z,1.50
2022-11-06T01:50:13.095Z,1.67
2022-11-06T01:52:40.446Z,1.45
2022-11-06T01:55:12.358Z,1.30
2022-11-06T01:57:39.867Z,1.80
2022-11-06T02:00:07.589Z,1.98
2022-11-06T02:02:35.261Z,1.50
2022-11-06T02:05:02.429Z,1.20
2022-11-06T02:07:29.746Z,1.70
2022-11-06T02:09:56.831Z,1.45
2022-11-06T02:12:29.915Z,1.33
2022-11-06T02:15:02.959Z,1.73
2022-11-06T02:17:34.528Z,1.67
2022-11-06T02:20:24.462Z,1.50
2022-11-06T02:23:00.954Z,1.70
2022-11-06T02:25:30.895Z,1.30
2022-11-06T02:28:03.826Z,1.60
2022-11-06T02:30:32.937Z,1.38
2022-11-06T02:33:02.009Z,1.40
2022-11-06T02:35:31.439Z,1.35
2022-11-06T02:38:18.998Z,1.40
2022-11-06T02:40:49.259Z,1.40
2022-11-06T02:43:17.096Z,1.25
2022-11-06T02:45:49.625Z,1.73
2022-11-06T02:48:18.614Z,1.20
2022-11-06T02:53:14.754Z,1.40
2022-11-06T02:55:44.450Z,1.50
2022-11-06T02:58:19.915Z,1.52
2022-11-06T03:00:51.646Z,1.27
2022-11-06T03:03:24.498Z,1.20
2022-11-06T03:06:05.375Z,1.40
2022-11-06T03:08:32.540Z,1.27
2022-11-06T03:11:07.372Z,1.48
2022-11-06T03:13:45.104Z,1.52
2022-11-06T03:16:24.198Z,1.38
2022-11-06T03:18:54.324Z,1.48
2022-11-06T03:21:26.898Z,1.38
2022-11-06T03:23:56.633Z,1.20
2022-11-06T03:26:33.635Z,1.40
2022-11-06T03:29:13.110Z,1.85
2022-11-06T03:31:44.889Z,1.08
2022-11-06T03:34:16.425Z,1.23
2022-11-06T03:36:45.245Z,1.15
2022-11-06T03:39:15.474Z,1.52
2022-11-06T03:41:57.547Z,1.30
2022-11-06T03:44:27.577Z,1.20
2022-11-06T03:46:56.527Z,1.27
2022-11-06T03:51:54.468Z,1.63
2022-11-06T03:54:27.346Z,1.45
2022-11-06T03:56:54.466Z,1.30
2022-11-06T03:59:25.230Z,1.30
2022-11-06T04:01:54.909Z,1.60
2022-11-06T04:04:27.466Z,1.20
2022-11-06T04:06:56.918Z,1.30
2022-11-06T04:09:46.158Z,1.10
2022-11-06T04:12:33.327Z,1.42
2022-11-06T04:15:01.161Z,1.25
2022-11-06T04:17:29.615Z,2.50
2022-11-06T04:20:00.141Z,1.10
2022-11-06T04:22:53.677Z,1.23
2022-11-06T04:28:09.390Z,1.33
2022-11-06T04:30:44.446Z,1.38
2022-11-06T04:33:27.413Z,1.55
2022-11-06T04:36:04.498Z,1.20
2022-11-06T04:38:39.583Z,1.15
2022-11-06T04:41:06.645Z,1.10
2022-11-06T04:43:39.762Z,1.10
2022-11-06T04:46:09.105Z,1.40
2022-11-06T04:48:37.251Z,1.10
2022-11-06T04:51:06.847Z,1.50
2022-11-06T04:53:34.768Z,1.35
2022-11-06T04:56:06.985Z,1.25
2022-11-06T04:58:34.489Z,1.13
2022-11-06T05:01:01.634Z,1.10
2022-11-06T05:03:28.809Z,0.98
2022-11-06T05:05:55.865Z,0.95
2022-11-06T05:08:23.044Z,1.25
2022-11-06T05:10:50.157Z,1.00
2022-11-06T05:13:17.278Z,1.27
2022-11-06T05:15:44.477Z,1.23
2022-11-06T05:18:12.066Z,1.33
2022-11-06T05:20:39.477Z,1.10
2022-11-06T05:23:06.634Z,1.63
2022-11-06T05:25:38.251Z,1.10
2022-11-06T05:28:07.095Z,1.00
2022-11-06T05:30:35.138Z,1.15
2022-11-06T05:33:02.288Z,1.05
2022-11-06T05:35:32.358Z,1.30
2022-11-06T05:38:00.218Z,1.48
2022-11-06T05:40:27.388Z,1.00
2022-11-06T05:42:54.525Z,1.23
2022-11-06T05:45:21.630Z,1.20
2022-11-06T05:47:48.708Z,1.13
2022-11-06T05:50:15.813Z,1.10
2022-11-06T05:52:42.893Z,1.20
2022-11-06T05:55:14.509Z,1.20
2022-11-06T05:57:42.478Z,1.30
2022-11-06T06:00:10.495Z,1.30
2022-11-06T06:02:38.044Z,1.10
2022-11-06T06:05:06.401Z,1.10
2022-11-06T06:07:34.012Z,1.10
2022-11-06T06:10:01.134Z,0.98
2022-11-06T06:12:28.197Z,1.33
2022-11-06T06:14:55.268Z,1.17
2022-11-06T06:17:22.564Z,1.17
2022-11-06T06:19:49.652Z,1.20
2022-11-06T06:22:16.874Z,1.00
2022-11-06T06:24:44.187Z,1.00
2022-11-06T06:27:11.488Z,0.80
2022-11-06T06:29:38.666Z,1.00
2022-11-06T06:32:05.924Z,1.40
2022-11-06T06:34:32.997Z,1.20
2022-11-06T06:37:00.110Z,1.60
2022-11-06T06:39:27.217Z,1.40
2022-11-06T06:41:54.595Z,1.35
2022-11-06T06:44:21.652Z,1.23
2022-11-06T06:46:48.780Z,0.80
2022-11-06T06:49:15.849Z,1.00
2022-11-06T06:51:42.970Z,1.10
2022-11-06T06:54:10.037Z,1.20
2022-11-06T06:56:37.144Z,1.10
2022-11-06T06:59:04.305Z,1.10
2022-11-06T07:01:31.698Z,1.60
2022-11-06T07:04:04.009Z,1.48
2022-11-06T07:06:31.608Z,1.60
2022-11-06T07:08:58.773Z,1.42
2022-11-06T07:11:25.857Z,1.42
2022-11-06T07:13:52.953Z,1.02
2022-11-06T07:16:21.764Z,1.80
2022-11-06T07:18:48.809Z,1.70
2022-11-06T07:21:15.896Z,1.33
2022-11-06T07:23:43.027Z,1.30
2022-11-06T07:26:10.206Z,1.20
2022-11-06T07:28:37.387Z,1.40
2022-11-06T07:31:05.518Z,1.85
2022-11-06T07:33:32.979Z,1.40
2022-11-06T07:36:04.214Z,1.65
2022-11-06T07:38:31.343Z,1.45
2022-11-06T07:41:01.843Z,1.55
2022-11-06T07:43:28.997Z,1.30
2022-11-06T07:45:59.376Z,1.58
2022-11-06T07:48:26.557Z,1.10
2022-11-06T07:50:53.734Z,1.38
2022-11-06T07:53:20.821Z,1.10
2022-11-06T07:55:55.256Z,1.15
2022-11-06T07:58:22.722Z,1.20
2022-11-06T08:00:50.011Z,1.05
2022-11-06T08:03:17.615Z,1.35
2022-11-06T08:05:45.009Z,1.05
2022-11-06T08:08:12.475Z,1.20
2022-11-06T08:10:40.656Z,1.15
2022-11-06T08:13:08.202Z,1.08
2022-11-06T08:15:35.310Z,1.20
2022-11-06T08:18:02.566Z,1.25
2022-11-06T08:20:29.667Z,0.90
2022-11-06T08:23:00.398Z,1.13
2022-11-06T08:25:28.000Z,1.08
2022-11-06T08:27:56.036Z,1.35
2022-11-06T08:30:23.149Z,1.08
2022-11-06T08:32:50.239Z,1.05
2022-11-06T08:35:17.472Z,1.48
2022-11-06T08:37:44.745Z,1.40
2022-11-06T08:40:12.185Z,1.48
2022-11-06T08:42:39.283Z,1.00
2022-11-06T08:45:06.785Z,1.08
2022-11-06T08:47:33.914Z,1.30
2022-11-06T08:50:00.995Z,1.30
2022-11-06T08:52:33.773Z,1.02
2022-11-06T08:55:01.288Z,1.25
2022-11-06T08:57:28.455Z,1.10
2022-11-06T08:59:55.643Z,1.05
2022-11-06T09:02:25.793Z,1.20
2022-11-06T09:04:52.961Z,1.25
2022-11-06T09:07:22.235Z,1.35
2022-11-06T09:09:49.321Z,1.08
2022-11-06T09:12:16.604Z,0.90
2022-11-06T09:14:43.702Z,1.10
2022-11-06T09:17:10.980Z,1.30
2022-11-06T09:19:38.185Z,1.58
2022-11-06T09:22:05.322Z,1.00
2022-11-06T09:25:01.320Z,1.30
2022-11-06T09:27:19.646Z,1.02
2022-11-06T09:29:47.936Z,1.10
2022-11-06T09:32:15.085Z,1.25
2022-11-06T09:34:42.261Z,0.70
2022-11-06T09:37:09.525Z,1.00
2022-11-06T09:39:37.008Z,0.90
2022-11-06T09:42:13.365Z,1.52
2022-11-06T09:45:00.748Z,1.00
2022-11-06T09:47:31.047Z,0.90
2022-11-06T09:49:58.350Z,0.90
2022-11-06T09:52:25.411Z,0.93
2022-11-06T09:54:59.141Z,1.00
2022-11-06T09:57:40.317Z,2.13
2022-11-06T10:00:08.292Z,1.30
2022-11-06T10:02:38.647Z,1.42
2022-11-06T10:05:11.881Z,1.17
2022-11-06T10:07:41.925Z,1.55
2022-11-06T10:10:15.237Z,1.05
2022-11-06T10:12:42.695Z,1.13
2022-11-06T10:15:13.698Z,1.83
2022-11-06T10:17:49.302Z,1.65
2022-11-06T10:20:26.926Z,2.30
2022-11-06T10:23:03.711Z,2.22
2022-11-06T10:25:50.052Z,2.42
2022-11-06T10:28:28.222Z,2.15
2022-11-06T10:31:07.703Z,2.50
2022-11-06T10:33:35.391Z,2.80
2022-11-06T10:36:25.912Z,2.10
2022-11-06T10:38:54.287Z,2.80
2022-11-06T10:41:28.576Z,2.83
2022-11-06T10:44:02.928Z,2.70
2022-11-06T10:46:34.181Z,3.08
2022-11-06T10:49:22.202Z,2.50
2022-11-06T10:52:09.033Z,2.90
2022-11-06T10:54:54.449Z,3.00
2022-11-06T10:57:27.513Z,2.55
2022-11-06T10:59:54.809Z,1.83
2022-11-06T11:02:32.513Z,2.53
2022-11-06T11:05:00.185Z,2.05
2022-11-06T11:07:31.081Z,2.50
2022-11-06T11:09:58.204Z,1.95
2022-11-06T11:12:28.107Z,1.77
2022-11-06T11:15:12.653Z,2.22
2022-11-06T11:17:40.424Z,1.83
2022-11-06T11:20:29.603Z,1.75
2022-11-06T11:23:23.186Z,1.92
2022-11-06T11:25:51.710Z,1.80
2022-11-06T11:28:27.435Z,1.65
2022-11-06T11:30:55.840Z,1.52
2022-11-06T11:33:25.113Z,1.45
2022-11-06T11:35:53.570Z,1.55
2022-11-06T11:38:22.268Z,1.52
2022-11-06T11:40:49.834Z,1.48
2022-11-06T11:43:27.353Z,1.15
2022-11-06T11:46:26.831Z,1.60
2022-11-06T11:48:55.709Z,1.10
2022-11-06T11:51:25.687Z,1.20
2022-11-06T11:53:54.980Z,1.63
2022-11-06T11:56:49.709Z,1.30
2022-11-06T11:59:16.263Z,1.20
2022-11-06T12:01:43.434Z,1.23
2022-11-06T12:04:21.846Z,1.40
2022-11-06T12:07:02.805Z,1.30
2022-11-06T12:09:32.312Z,1.00
2022-11-06T12:12:00.409Z,1.13
2022-11-06T12:14:29.216Z,1.27
2022-11-06T12:17:09.622Z,1.10
2022-11-06T12:19:38.247Z,1.27
2022-11-06T12:22:10.220Z,1.48
2022-11-06T12:24:45.401Z,1.13
2022-11-06T12:27:18.161Z,1.00
2022-11-06T12:29:48.422Z,1.20
2022-11-06T12:32:15.466Z,1.45
2022-11-06T12:34:51.705Z,1.20
2022-11-06T12:37:27.876Z,1.17
2022-11-06T12:40:00.817Z,1.25
2022-11-06T12:42:30.717Z,1.17
2022-11-06T12:44:57.997Z,0.93
2022-11-06T12:47:47.139Z,1.20
2022-11-06T12:50:20.122Z,1.30
2022-11-06T12:52:50.163Z,1.38
2022-11-06T12:55:20.076Z,1.40
2022-11-06T12:57:49.942Z,1.48
2022-11-06T13:00:21.524Z,1.20
2022-11-06T13:02:57.470Z,1.13
2022-11-06T13:05:24.705Z,1.30
2022-11-06T13:08:00.751Z,1.35
2022-11-06T13:10:27.887Z,1.25
2022-11-06T13:13:14.121Z,1.30
2022-11-06T13:15:48.733Z,1.40
2022-11-06T13:18:19.671Z,1.17
2022-11-06T13:20:53.002Z,1.42
2022-11-06T13:23:28.868Z,1.30
2022-11-06T13:25:56.366Z,1.45
2022-11-06T13:28:27.017Z,1.33
2022-11-06T13:30:54.807Z,1.20
2022-11-06T13:33:27.397Z,1.15
2022-11-06T13:35:54.895Z,1.67
2022-11-06T13:38:29.096Z,1.20
2022-11-06T13:41:03.301Z,1.30
2022-11-06T13:43:40.332Z,1.00
2022-11-06T13:46:19.287Z,1.15
2022-11-06T13:48:55.247Z,1.25
2022-11-06T13:51:39.838Z,1.52
2022-11-06T13:54:27.020Z,1.00
2022-11-06T13:57:04.627Z,1.20
2022-11-06T13:59:34.743Z,1.35
2022-11-06T14:02:13.896Z,1.23
2022-11-06T14:04:59.830Z,1.02
2022-11-06T14:07:29.354Z,1.50
2022-11-06T14:09:56.850Z,1.10
2022-11-06T14:12:24.219Z,1.42
2022-11-06T14:14:53.339Z,1.85
2022-11-06T14:17:24.844Z,1.50
2022-11-06T14:19:51.964Z,1.50
2022-11-06T14:22:32.709Z,1.35
2022-11-06T14:25:01.911Z,1.95
2022-11-06T14:27:29.260Z,1.20
2022-11-06T14:30:02.441Z,1.27
2022-11-06T14:32:32.574Z,1.15
2022-11-06T14:35:20.094Z,1.10
2022-11-06T14:37:47.664Z,1.20
2022-11-06T14:40:41.859Z,1.27
2022-11-06T14:43:18.586Z,1.10
2022-11-06T14:46:07.696Z,1.30
2022-11-06T14:48:38.249Z,1.40
2022-11-06T14:51:07.307Z,2.42
2022-11-06T14:53:34.412Z,0.98
2022-11-06T14:56:03.161Z,1.08
2022-11-06T14:58:49.539Z,1.23
2022-11-06T15:01:41.051Z,1.33
2022-11-06T15:04:20.334Z,1.58
2022-11-06T15:06:51.373Z,1.00
2022-11-06T15:09:25.247Z,1.33
2022-11-06T15:11:53.863Z,0.88
2022-11-06T15:14:20.953Z,1.35
2022-11-06T15:17:08.328Z,1.00
2022-11-06T15:19:39.195Z,1.73
2022-11-06T15:22:09.089Z,1.20
2022-11-06T15:24:42.157Z,1.00
2022-11-06T15:27:24.363Z,1.20
2022-11-06T15:29:56.518Z,1.08
2022-11-06T15:32:27.869Z,0.98
2022-11-06T15:35:04.218Z,1.10
2022-11-06T15:37:32.925Z,1.00
2022-11-06T15:40:01.658Z,1.10
2022-11-06T15:45:09.881Z,0.82
2022-11-06T15:47:37.014Z,1.13
2022-11-06T15:50:13.291Z,1.10
2022-11-06T15:52:40.937Z,0.85
2022-11-06T15:55:12.787Z,1.42
2022-11-06T15:57:40.321Z,1.20
2022-11-06T16:00:13.315Z,1.55
2022-11-06T16:02:48.759Z,1.02
2022-11-06T16:05:17.208Z,1.40
2022-11-06T16:07:45.544Z,1.25
2022-11-06T16:10:20.844Z,1.13
2022-11-06T16:12:48.745Z,1.35
2022-11-06T16:15:34.720Z,0.80
2022-11-06T16:18:05.909Z,1.10
2022-11-06T16:20:33.041Z,1.13
2022-11-06T16:23:03.476Z,1.23
2022-11-06T16:25:30.679Z,1.20
2022-11-06T16:27:58.330Z,1.13
2022-11-06T16:30:26.014Z,1.63
2022-11-06T16:32:53.415Z,1.05
2022-11-06T16:35:36.742Z,1.42
2022-11-06T16:38:39.041Z,1.25
2022-11-06T16:41:03.042Z,1.13
2022-11-06T16:43:30.378Z,1.20
2022-11-06T16:45:59.158Z,1.20
2022-11-06T16:48:32.183Z,1.17
2022-11-06T16:51:01.021Z,1.10
2022-11-06T16:53:29.381Z,0.90
2022-11-06T16:55:57.365Z,1.10
2022-11-06T16:58:24.598Z,1.50
2022-11-06T17:00:59.253Z,1.13
2022-11-06T17:03:28.320Z,0.80
2022-11-06T17:08:22.380Z,1.00
2022-11-06T17:10:52.809Z,1.13
2022-11-06T17:13:19.911Z,1.10
2022-11-06T17:15:50.148Z,1.00
2022-11-06T17:18:19.308Z,1.00
2022-11-06T17:20:48.595Z,1.25
2022-11-06T17:23:16.629Z,1.10
2022-11-06T17:25:44.406Z,0.93
2022-11-06T17:28:11.561Z,1.00
2022-11-06T17:30:39.154Z,1.20
2022-11-06T17:33:06.368Z,1.10
2022-11-06T17:35:34.961Z,1.08
2022-11-06T17:38:07.001Z,1.17
2022-11-06T17:40:34.645Z,1.20
2022-11-06T17:43:01.813Z,0.95
2022-11-06T17:45:29.041Z,1.00
2022-11-06T17:47:56.133Z,1.00
2022-11-06T17:50:23.318Z,1.17
2022-11-06T17:52:50.547Z,0.93
2022-11-06T17:55:17.707Z,1.20
2022-11-06T17:57:44.924Z,1.05
2022-11-06T18:00:12.963Z,1.00
2022-11-06T18:02:59.744Z,1.10
2022-11-06T18:05:27.354Z,1.10
2022-11-06T18:07:54.425Z,0.90
2022-11-06T18:10:23.796Z,1.30
2022-11-06T18:12:54.610Z,1.15
2022-11-06T18:15:21.672Z,1.17
2022-11-06T18:17:48.853Z,1.00
2022-11-06T18:20:15.942Z,1.08
2022-11-06T18:22:43.005Z,0.93
2022-11-06T18:25:10.165Z,1.45
2022-11-06T18:27:37.298Z,1.30
2022-11-06T18:30:04.539Z,1.10
2022-11-06T18:32:31.621Z,1.10
2022-11-06T18:34:58.870Z,1.02
2022-11-06T18:37:26.042Z,1.30
2022-11-06T18:39:53.127Z,1.00
2022-11-06T18:42:20.267Z,1.08
2022-11-06T18:44:47.398Z,1.23
2022-11-06T18:47:14.560Z,1.20
2022-11-06T18:49:41.665Z,0.90
2022-11-06T18:52:08.808Z,0.90
2022-11-06T18:54:36.076Z,1.17
2022-11-06T18:57:03.195Z,1.05
2022-11-06T18:59:30.363Z,0.80
2022-11-06T19:01:57.580Z,1.08
2022-11-06T19:04:26.426Z,1.30
2022-11-06T19:06:53.728Z,1.20
2022-11-06T19:09:21.004Z,1.17
2022-11-06T19:11:50.169Z,1.20
2022-11-06T19:14:17.397Z,1.20
2022-11-06T19:16:44.521Z,1.23
2022-11-06T19:19:24.895Z,1.10
2022-11-06T19:21:53.211Z,1.20
2022-11-06T19:24:20.523Z,1.27
2022-11-06T19:26:47.845Z,1.10
2022-11-06T19:29:14.936Z,1.30
2022-11-06T19:31:42.635Z,1.20
2022-11-06T19:34:10.027Z,1.13
2022-11-06T19:36:37.255Z,1.00
2022-11-06T19:39:04.730Z,1.13
2022-11-06T19:41:31.861Z,1.05
2022-11-06T19:43:59.028Z,1.00
2022-11-06T19:46:31.102Z,1.02
2022-11-06T19:49:02.338Z,1.33
2022-11-06T19:51:29.538Z,1.02
2022-11-06T19:53:56.801Z,1.10
2022-11-06T19:56:24.075Z,1.10
2022-11-06T19:58:52.055Z,1.00
2022-11-06T20:01:19.824Z,1.17
2022-11-06T20:03:47.222Z,1.77
2022-11-06T20:06:16.285Z,1.15
2022-11-06T20:08:43.649Z,1.63
2022-11-06T20:11:14.734Z,1.25
2022-11-06T20:13:42.537Z,1.02
2022-11-06T20:16:13.969Z,1.10
2022-11-06T20:18:41.161Z,1.70
2022-11-06T20:21:09.453Z,1.35
2022-11-06T20:23:36.791Z,1.75
2022-11-06T20:26:05.087Z,1.27
2022-11-06T20:28:32.831Z,1.00
2022-11-06T20:31:00.279Z,1.25
2022-11-06T20:33:27.467Z,1.35
2022-11-06T20:35:54.599Z,1.30
2022-11-06T20:38:21.670Z,1.10
2022-11-06T20:40:48.795Z,1.30
2022-11-06T20:43:16.426Z,1.15
2022-11-06T20:45:44.279Z,1.00
2022-11-06T20:48:11.430Z,1.10
2022-11-06T20:50:38.502Z,1.10
2022-11-06T20:53:05.622Z,1.02
2022-11-06T20:55:32.722Z,1.10
2022-11-06T20:57:59.791Z,1.10
2022-11-06T21:00:27.055Z,1.10
2022-11-06T21:02:58.928Z,1.50
2022-11-06T21:05:28.482Z,1.35
2022-11-06T21:07:55.576Z,1.10
2022-11-06T21:10:23.137Z,1.23
2022-11-06T21:12:50.231Z,1.40
2022-11-06T21:15:17.392Z,1.20
2022-11-06T21:17:44.493Z,1.48
2022-11-06T21:20:11.658Z,1.38
2022-11-06T21:22:38.753Z,1.30
2022-11-06T21:25:06.014Z,1.20
2022-11-06T21:27:33.098Z,1.10
2022-11-06T21:30:00.215Z,1.10
2022-11-06T21:32:27.398Z,1.17
2022-11-06T21:34:54.476Z,1.15
2022-11-06T21:37:32.699Z,1.30
2022-11-06T21:40:00.771Z,1.63
2022-11-06T21:42:28.006Z,1.15
2022-11-06T21:44:55.285Z,1.10
2022-11-06T21:47:22.416Z,1.73
2022-11-06T21:49:53.944Z,1.25
2022-11-06T21:52:42.888Z,1.15
2022-11-06T21:55:28.800Z,1.20
2022-11-06T21:57:56.026Z,1.10
2022-11-06T22:00:23.117Z,1.27
2022-11-06T22:02:51.277Z,1.10
2022-11-06T22:05:18.683Z,1.30
2022-11-06T22:07:45.819Z,1.13
2022-11-06T22:10:13.000Z,1.60
2022-11-06T22:12:40.133Z,1.20
2022-11-06T22:15:07.769Z,1.10
2022-11-06T22:17:34.944Z,1.20
2022-11-06T22:20:02.178Z,1.50
2022-11-06T22:22:29.656Z,0.95
2022-11-06T22:24:56.842Z,1.25
2022-11-06T22:27:24.138Z,1.17
2022-11-06T22:29:51.295Z,1.50
2022-11-06T22:32:18.408Z,1.20
2022-11-06T22:34:45.559Z,1.00
2022-11-06T22:37:12.634Z,1.20
2022-11-06T22:39:39.738Z,1.17
2022-11-06T22:42:07.259Z,1.00
2022-11-06T22:44:35.362Z,1.10
2022-11-06T22:47:02.957Z,1.15
2022-11-06T22:49:33.245Z,1.13
2022-11-06T22:52:00.546Z,1.20
2022-11-06T22:54:27.650Z,1.10
2022-11-06T22:56:54.733Z,1.58
2022-11-06T22:59:21.946Z,1.52
2022-11-06T23:01:49.137Z,1.45
2022-11-06T23:04:16.312Z,1.20
2022-11-06T23:06:44.353Z,1.17
2022-11-06T23:09:11.545Z,1.23
2022-11-06T23:11:38.676Z,1.10
2022-11-06T23:14:08.857Z,1.17
2022-11-06T23:16:55.266Z,1.20
2022-11-06T23:19:22.629Z,1.10
2022-11-06T23:21:50.058Z,1.15
2022-11-06T23:24:17.201Z,1.10
2022-11-06T23:26:44.628Z,1.52
2022-11-06T23:29:11.739Z,1.20
2022-11-06T23:31:41.180Z,1.00
2022-11-06T23:34:08.449Z,1.05
2022-11-06T23:36:35.800Z,1.33
2022-11-06T23:39:03.100Z,1.17
2022-11-06T23:41:46.182Z,1.00
2022-11-06T23:44:32.640Z,1.23
2022-11-06T23:46:59.737Z,1.30
2022-11-06T23:49:26.859Z,1.17
2022-11-06T23:51:54.019Z,1.05
2022-11-06T23:54:21.197Z,1.10
2022-11-06T23:56:48.351Z,1.27
2022-11-06T23:59:15.553Z,1.10
